createdAt,value
2022-07-29T00:00:33.391Z,101044.25
2022-07-29T00:03:00.990Z,101060.25
2022-07-29T00:05:29.047Z,101069.53
2022-07-29T00:07:56.569Z,101058.91
2022-07-29T00:10:24.128Z,101050.84
2022-07-29T00:12:51.601Z,101044.97
2022-07-29T00:15:19.768Z,101043.66
2022-07-29T00:17:47.415Z,101037.13
2022-07-29T00:20:14.896Z,101041.91
2022-07-29T00:22:42.379Z,101046.84
2022-07-29T00:25:10.284Z,101051.88
2022-07-29T00:27:37.841Z,101044.78
2022-07-29T00:30:06.471Z,101032.69
2022-07-29T00:32:34.256Z,101031.84
2022-07-29T00:35:20.303Z,101039.19
2022-07-29T00:37:47.857Z,101040.22
2022-07-29T00:40:15.298Z,101038.16
2022-07-29T00:42:48.161Z,101049.25
2022-07-29T00:45:16.618Z,101054.00
2022-07-29T00:47:44.839Z,101052.38
2022-07-29T00:50:13.886Z,101042.91
2022-07-29T00:52:42.958Z,101047.06
2022-07-29T00:55:15.655Z,101039.59
2022-07-29T00:57:44.810Z,101031.25
2022-07-29T01:00:18.695Z,101028.63
2022-07-29T01:02:49.295Z,101031.34
2022-07-29T01:05:22.068Z,101034.97
2022-07-29T01:07:53.506Z,101042.88
2022-07-29T01:10:22.948Z,101031.22
2022-07-29T01:12:52.877Z,101038.19
2022-07-29T01:15:21.059Z,101037.34
2022-07-29T01:18:03.718Z,101036.13
2022-07-29T01:21:04.393Z,101035.63
2022-07-29T01:23:59.791Z,101031.94
2022-07-29T01:26:36.407Z,101036.16
2022-07-29T01:29:09.179Z,101026.06
2022-07-29T01:32:00.568Z,101015.53
2022-07-29T01:34:49.865Z,101011.91
2022-07-29T01:37:50.229Z,101014.75
2022-07-29T01:40:23.569Z,101016.69
2022-07-29T01:42:55.759Z,101001.31
2022-07-29T01:45:30.226Z,100995.13
2022-07-29T01:48:01.972Z,101002.44
2022-07-29T01:50:47.301Z,101003.06
2022-07-29T01:53:22.258Z,100997.22
2022-07-29T01:55:50.375Z,100999.22
2022-07-29T01:58:20.087Z,101001.47
2022-07-29T02:00:49.445Z,100995.22
2022-07-29T02:03:19.740Z,100995.66
2022-07-29T02:05:48.968Z,101004.75
2022-07-29T02:08:19.430Z,101001.22
2022-07-29T02:10:49.459Z,101003.13
2022-07-29T02:13:19.289Z,101003.47
2022-07-29T02:15:47.869Z,101006.81
2022-07-29T02:18:20.654Z,101025.72
2022-07-29T02:20:53.145Z,101026.84
2022-07-29T02:23:23.538Z,101030.69
2022-07-29T02:25:54.299Z,101036.81
2022-07-29T02:28:23.896Z,101030.69
2022-07-29T02:30:53.612Z,101022.94
2022-07-29T02:33:22.502Z,101032.09
2022-07-29T02:35:51.267Z,101033.19
2022-07-29T02:38:39.845Z,101032.06
2022-07-29T02:41:12.556Z,101024.31
2022-07-29T02:43:42.133Z,101034.03
2022-07-29T02:46:28.940Z,101032.66
2022-07-29T02:49:21.976Z,101024.59
2022-07-29T02:51:58.594Z,101017.34
2022-07-29T02:54:52.568Z,101015.69
2022-07-29T02:57:31.340Z,101024.31
2022-07-29T03:00:04.880Z,101031.25
2022-07-29T03:02:38.761Z,101029.56
2022-07-29T03:05:09.104Z,101036.81
2022-07-29T03:07:38.133Z,101034.59
2022-07-29T03:10:07.940Z,101031.84
2022-07-29T03:12:42.658Z,101032.06
2022-07-29T03:15:11.186Z,101029.56
2022-07-29T03:17:40.223Z,101039.59
2022-07-29T03:20:09.069Z,101033.22
2022-07-29T03:22:44.680Z,101035.16
2022-07-29T03:25:12.946Z,101040.16
2022-07-29T03:27:40.734Z,101044.03
2022-07-29T03:30:09.585Z,101055.69
2022-07-29T03:32:37.613Z,101047.91
2022-07-29T03:35:06.600Z,101045.72
2022-07-29T03:37:34.597Z,101051.19
2022-07-29T03:40:08.179Z,101047.38
2022-07-29T03:42:39.110Z,101059.56
2022-07-29T03:45:11.117Z,101055.13
2022-07-29T03:47:50.874Z,101053.75
2022-07-29T03:50:21.913Z,101043.50
2022-07-29T03:52:50.537Z,101053.47
2022-07-29T03:55:18.326Z,101059.56
2022-07-29T03:57:48.317Z,101054.03
2022-07-29T04:00:17.060Z,101051.25
2022-07-29T04:02:49.619Z,101047.94
2022-07-29T04:05:18.242Z,101044.91
2022-07-29T04:07:47.456Z,101041.25
2022-07-29T04:10:16.776Z,101039.88
2022-07-29T04:12:44.544Z,101041.25
2022-07-29T04:15:12.340Z,101042.94
2022-07-29T04:17:39.919Z,101051.78
2022-07-29T04:20:07.993Z,101050.13
2022-07-29T04:22:35.674Z,101057.91
2022-07-29T04:25:04.196Z,101065.13
2022-07-29T04:27:32.273Z,101072.88
2022-07-29T04:29:59.728Z,101075.13
2022-07-29T04:32:27.877Z,101077.81
2022-07-29T04:34:55.344Z,101082.31
2022-07-29T04:37:22.811Z,101085.66
2022-07-29T04:39:50.308Z,101099.00
2022-07-29T04:42:17.764Z,101097.38
2022-07-29T04:44:52.639Z,101112.56
2022-07-29T04:47:20.100Z,101113.41
2022-07-29T04:49:47.544Z,101126.16
2022-07-29T04:52:15.021Z,101119.00
2022-07-29T04:54:42.505Z,101122.09
2022-07-29T04:57:09.994Z,101126.25
2022-07-29T04:59:37.428Z,101123.50
2022-07-29T05:02:04.945Z,101123.50
2022-07-29T05:04:32.514Z,101120.72
2022-07-29T05:07:00.005Z,101114.59
2022-07-29T05:09:27.577Z,101107.38
2022-07-29T05:11:55.033Z,101106.25
2022-07-29T05:14:22.458Z,101110.69
2022-07-29T05:16:52.093Z,101110.66
2022-07-29T05:19:19.504Z,101120.16
2022-07-29T05:21:46.943Z,101120.41
2022-07-29T05:24:14.856Z,101128.19
2022-07-29T05:26:43.722Z,101117.91
2022-07-29T05:29:43.164Z,101114.06
2022-07-29T05:31:59.756Z,101121.00
2022-07-29T05:34:27.964Z,101116.53
2022-07-29T05:36:55.696Z,101107.97
2022-07-29T05:39:23.521Z,101102.09
2022-07-29T05:42:11.170Z,101091.75
2022-07-29T05:44:39.922Z,101093.22
2022-07-29T05:47:07.569Z,101095.72
2022-07-29T05:49:35.191Z,101096.53
2022-07-29T05:52:02.742Z,101098.47
2022-07-29T05:54:30.319Z,101100.16
2022-07-29T05:56:57.788Z,101104.59
2022-07-29T05:59:30.117Z,101094.31
2022-07-29T06:01:58.673Z,101096.53
2022-07-29T06:04:26.248Z,101098.50
2022-07-29T06:06:53.713Z,101105.72
2022-07-29T06:09:21.201Z,101106.03
2022-07-29T06:11:48.682Z,101103.78
2022-07-29T06:14:16.466Z,101112.41
2022-07-29T06:16:44.085Z,101116.56
2022-07-29T06:19:11.609Z,101117.97
2022-07-29T06:21:45.981Z,101127.63
2022-07-29T06:24:14.961Z,101131.53
2022-07-29T06:26:43.391Z,101141.00
2022-07-29T06:29:11.755Z,101136.84
2022-07-29T06:31:39.756Z,101133.19
2022-07-29T06:34:07.691Z,101134.56
2022-07-29T06:36:37.704Z,101132.31
2022-07-29T06:39:09.191Z,101133.63
2022-07-29T06:41:36.706Z,101130.22
2022-07-29T06:44:10.512Z,101131.41
2022-07-29T06:46:38.044Z,101132.50
2022-07-29T06:49:05.898Z,101130.78
2022-07-29T06:51:33.535Z,101132.09
2022-07-29T06:54:02.678Z,101130.41
2022-07-29T06:56:32.420Z,101127.91
2022-07-29T06:59:06.329Z,101135.22
2022-07-29T07:01:33.900Z,101129.84
2022-07-29T07:04:01.682Z,101127.47
2022-07-29T07:06:29.227Z,101136.03
2022-07-29T07:08:56.760Z,101134.66
2022-07-29T07:11:24.333Z,101131.63
2022-07-29T07:13:51.846Z,101138.19
2022-07-29T07:16:19.471Z,101139.50
2022-07-29T07:18:47.087Z,101141.13
2022-07-29T07:21:19.162Z,101131.59
2022-07-29T07:23:47.614Z,101124.41
2022-07-29T07:26:15.879Z,101123.44
2022-07-29T07:28:43.381Z,101133.22
2022-07-29T07:31:11.734Z,101117.59
2022-07-29T07:33:39.292Z,101121.16
2022-07-29T07:36:06.773Z,101125.63
2022-07-29T07:38:34.244Z,101130.66
2022-07-29T07:41:02.188Z,101123.06
2022-07-29T07:43:29.755Z,101120.28
2022-07-29T07:45:57.278Z,101118.81
2022-07-29T07:48:24.843Z,101117.94
2022-07-29T07:50:55.366Z,101109.53
2022-07-29T07:53:23.177Z,101117.84
2022-07-29T07:56:10.054Z,101115.88
2022-07-29T07:58:38.118Z,101113.00
2022-07-29T08:01:05.642Z,101110.88
2022-07-29T08:03:34.074Z,101108.81
2022-07-29T08:06:02.509Z,101098.00
2022-07-29T08:08:29.983Z,101106.38
2022-07-29T08:10:57.808Z,101105.34
2022-07-29T08:13:29.270Z,101112.13
2022-07-29T08:16:02.351Z,101107.28
2022-07-29T08:18:32.127Z,101113.00
2022-07-29T08:20:59.893Z,101106.22
2022-07-29T08:23:32.812Z,101109.66
2022-07-29T08:26:14.977Z,101100.88
2022-07-29T08:28:46.832Z,101102.31
2022-07-29T08:31:15.102Z,101098.84
2022-07-29T08:33:43.364Z,101104.19
2022-07-29T08:36:11.022Z,101105.72
2022-07-29T08:38:38.468Z,101111.13
2022-07-29T08:41:05.916Z,101093.28
2022-07-29T08:43:36.134Z,101094.41
2022-07-29T08:46:03.735Z,101100.41
2022-07-29T08:48:32.786Z,101098.13
2022-07-29T08:51:01.512Z,101095.69
2022-07-29T08:53:30.735Z,101105.53
2022-07-29T08:55:59.170Z,101110.22
2022-07-29T08:58:28.357Z,101099.97
2022-07-29T09:00:58.038Z,101108.56
2022-07-29T09:03:31.679Z,101101.53
2022-07-29T09:06:03.237Z,101096.91
2022-07-29T09:08:32.793Z,101085.59
2022-07-29T09:11:03.828Z,101087.16
2022-07-29T09:13:31.612Z,101082.69
2022-07-29T09:15:59.093Z,101081.47
2022-07-29T09:18:36.967Z,101076.06
2022-07-29T09:21:24.819Z,101076.09
2022-07-29T09:24:18.864Z,101067.91
2022-07-29T09:26:47.439Z,101065.81
2022-07-29T09:29:21.314Z,101070.56
2022-07-29T09:31:51.305Z,101070.88
2022-07-29T09:34:32.359Z,101068.50
2022-07-29T09:36:59.920Z,101069.19
2022-07-29T09:39:34.341Z,101065.28
2022-07-29T09:42:04.663Z,101059.16
2022-07-29T09:44:50.936Z,101064.38
2022-07-29T09:47:20.149Z,101058.00
2022-07-29T09:50:01.210Z,101059.78
2022-07-29T09:52:30.299Z,101051.31
2022-07-29T09:55:08.781Z,101055.78
2022-07-29T09:57:36.785Z,101049.00
2022-07-29T10:00:09.093Z,101047.25
2022-07-29T10:02:47.257Z,101040.13
2022-07-29T10:05:23.802Z,101034.00
2022-07-29T10:07:57.391Z,101032.25
2022-07-29T10:10:27.818Z,101032.81
2022-07-29T10:13:08.042Z,101033.63
2022-07-29T10:15:42.153Z,101029.88
2022-07-29T10:18:11.175Z,101038.84
2022-07-29T10:20:39.299Z,101039.63
2022-07-29T10:23:07.161Z,101042.78
2022-07-29T10:25:34.759Z,101028.47
2022-07-29T10:28:02.201Z,101029.81
2022-07-29T10:30:29.708Z,101030.56
2022-07-29T10:33:15.939Z,101030.53
2022-07-29T10:35:58.804Z,101021.75
2022-07-29T10:38:55.558Z,101022.72
2022-07-29T10:41:43.848Z,101015.06
2022-07-29T10:44:24.063Z,101010.50
2022-07-29T10:46:53.091Z,101010.94
2022-07-29T10:49:24.921Z,101005.56
2022-07-29T10:51:58.911Z,101003.75
2022-07-29T10:54:52.376Z,101004.25
2022-07-29T10:57:53.733Z,100998.88
2022-07-29T11:00:29.067Z,100986.53
2022-07-29T11:02:59.149Z,100977.94
2022-07-29T11:05:39.869Z,100974.25
2022-07-29T11:08:20.543Z,100975.94
2022-07-29T11:10:50.340Z,100968.75
2022-07-29T11:13:49.069Z,100969.41
2022-07-29T11:16:21.260Z,100968.31
2022-07-29T11:19:14.161Z,100981.75
2022-07-29T11:21:55.365Z,100975.69
2022-07-29T11:24:31.952Z,100959.16
2022-07-29T11:27:13.242Z,100951.81
2022-07-29T11:29:55.934Z,100955.31
2022-07-29T11:32:29.516Z,100956.22
2022-07-29T11:35:19.173Z,100955.91
2022-07-29T11:38:27.953Z,100949.53
2022-07-29T11:41:25.160Z,100936.59
2022-07-29T11:43:53.958Z,100936.47
2022-07-29T11:46:53.751Z,100949.56
2022-07-29T11:49:32.224Z,100940.97
2022-07-29T11:52:04.873Z,100942.06
2022-07-29T11:54:57.296Z,100942.13
2022-07-29T11:57:22.774Z,100940.31
2022-07-29T12:00:11.986Z,100936.31
2022-07-29T12:02:48.367Z,100928.19
2022-07-29T12:05:35.983Z,100935.66
2022-07-29T12:08:08.332Z,100929.50
2022-07-29T12:10:42.013Z,100923.44
2022-07-29T12:13:11.106Z,100921.53
2022-07-29T12:15:46.981Z,100928.91
2022-07-29T12:18:23.903Z,100913.25
2022-07-29T12:21:05.922Z,100911.09
2022-07-29T12:23:35.018Z,100913.09
2022-07-29T12:26:11.028Z,100904.50
2022-07-29T12:28:52.949Z,100893.75
2022-07-29T12:31:43.304Z,100888.69
2022-07-29T12:34:12.376Z,100887.72
2022-07-29T12:36:40.135Z,100888.91
2022-07-29T12:39:07.916Z,100874.75
2022-07-29T12:41:35.847Z,100884.16
2022-07-29T12:44:03.427Z,100882.22
2022-07-29T12:46:33.139Z,100868.78
2022-07-29T12:49:00.892Z,100887.56
2022-07-29T12:51:39.792Z,100880.25
2022-07-29T12:54:08.963Z,100874.19
2022-07-29T12:56:44.797Z,100865.16
2022-07-29T12:59:21.383Z,100861.44
2022-07-29T13:01:52.273Z,100854.66
2022-07-29T13:04:31.825Z,100840.50
2022-07-29T13:07:06.931Z,100830.22
2022-07-29T13:09:46.498Z,100822.38
2022-07-29T13:12:15.109Z,100827.94
2022-07-29T13:14:47.989Z,100842.88
2022-07-29T13:17:21.758Z,100843.97
2022-07-29T13:20:09.801Z,100848.81
2022-07-29T13:22:37.262Z,100831.69
2022-07-29T13:25:07.516Z,100830.25
2022-07-29T13:27:38.310Z,100822.28
2022-07-29T13:30:07.126Z,100820.56
2022-07-29T13:32:35.540Z,100818.25
2022-07-29T13:35:06.586Z,100816.28
2022-07-29T13:37:35.942Z,100822.69
2022-07-29T13:40:05.184Z,100820.91
2022-07-29T13:42:33.680Z,100824.66
2022-07-29T13:45:01.856Z,100835.47
2022-07-29T13:47:34.079Z,100841.22
2022-07-29T13:50:02.334Z,100838.16
2022-07-29T13:52:30.003Z,100827.34
2022-07-29T13:54:57.473Z,100834.69
2022-07-29T13:57:25.166Z,100835.97
2022-07-29T13:59:54.455Z,100820.41
2022-07-29T14:02:25.370Z,100833.31
2022-07-29T14:04:54.774Z,100833.91
2022-07-29T14:07:23.948Z,100816.22
2022-07-29T14:09:51.820Z,100814.59
2022-07-29T14:12:20.093Z,100834.13
2022-07-29T14:14:47.604Z,100838.47
2022-07-29T14:17:16.045Z,100838.25
2022-07-29T14:19:43.969Z,100855.38
2022-07-29T14:22:11.520Z,100852.13
2022-07-29T14:24:39.740Z,100847.38
2022-07-29T14:27:08.941Z,100853.56
2022-07-29T14:29:38.803Z,100863.00
2022-07-29T14:32:08.154Z,100869.13
2022-07-29T14:34:37.703Z,100866.91
2022-07-29T14:37:06.703Z,100877.13
2022-07-29T14:39:42.649Z,100883.13
2022-07-29T14:42:12.682Z,100885.03
2022-07-29T14:44:42.530Z,100911.81
2022-07-29T14:47:10.355Z,100924.56
2022-07-29T14:49:38.199Z,100931.22
2022-07-29T14:52:06.944Z,100934.13
2022-07-29T14:54:34.474Z,100930.38
2022-07-29T14:57:01.991Z,100931.56
2022-07-29T14:59:29.438Z,100926.59
2022-07-29T15:01:57.431Z,100920.50
2022-07-29T15:04:25.032Z,100907.31
2022-07-29T15:06:52.935Z,100906.22
2022-07-29T15:09:20.412Z,100925.34
2022-07-29T15:11:47.966Z,100931.72
2022-07-29T15:14:15.546Z,100929.84
2022-07-29T15:16:43.688Z,100924.38
2022-07-29T15:19:14.261Z,100916.19
2022-07-29T15:21:48.030Z,100929.41
2022-07-29T15:24:18.013Z,100931.41
2022-07-29T15:26:48.621Z,100936.50
2022-07-29T15:29:16.402Z,100936.03
2022-07-29T15:31:44.661Z,100932.25
2022-07-29T15:34:12.165Z,100927.06
2022-07-29T15:36:52.098Z,100925.63
2022-07-29T15:39:21.827Z,100917.25
2022-07-29T15:41:50.043Z,100928.06
2022-07-29T15:44:17.958Z,100929.91
2022-07-29T15:47:03.728Z,100927.34
2022-07-29T15:49:48.119Z,100935.59
2022-07-29T15:52:25.896Z,100952.34
2022-07-29T15:54:56.353Z,100951.31
2022-07-29T15:57:24.985Z,100938.78
2022-07-29T15:59:52.697Z,100937.88
2022-07-29T16:02:20.651Z,100931.44
2022-07-29T16:04:48.719Z,100911.06
2022-07-29T16:07:16.182Z,100917.50
2022-07-29T16:09:49.320Z,100901.38
2022-07-29T16:12:20.221Z,100879.88
2022-07-29T16:14:49.539Z,100859.63
2022-07-29T16:17:17.431Z,100853.28
2022-07-29T16:19:45.578Z,100859.63
2022-07-29T16:22:13.560Z,100861.94
2022-07-29T16:24:41.761Z,100869.13
2022-07-29T16:27:09.478Z,100857.06
2022-07-29T16:29:37.432Z,100864.25
2022-07-29T16:32:06.095Z,100858.09
2022-07-29T16:34:33.711Z,100847.19
2022-07-29T16:37:01.368Z,100844.84
2022-07-29T16:39:29.012Z,100847.41
2022-07-29T16:41:59.989Z,100840.84
2022-07-29T16:44:28.589Z,100833.06
2022-07-29T16:46:57.326Z,100836.03
2022-07-29T16:49:27.699Z,100847.88
2022-07-29T16:51:55.179Z,100857.19
2022-07-29T16:54:22.823Z,100859.56
2022-07-29T16:56:50.272Z,100865.47
2022-07-29T16:59:18.544Z,100857.34
2022-07-29T17:01:46.074Z,100866.09
2022-07-29T17:04:14.988Z,100862.75
2022-07-29T17:06:42.780Z,100866.69
2022-07-29T17:09:11.825Z,100878.66
2022-07-29T17:11:53.722Z,100892.34
2022-07-29T17:14:26.969Z,100908.03
2022-07-29T17:17:00.627Z,100918.97
2022-07-29T17:19:32.850Z,100920.53
2022-07-29T17:22:10.428Z,100929.09
2022-07-29T17:24:39.084Z,100931.00
2022-07-29T17:27:09.722Z,100927.69
2022-07-29T17:29:38.857Z,100922.81
2022-07-29T17:32:08.124Z,100934.22
2022-07-29T17:34:40.019Z,100946.97
2022-07-29T17:37:09.540Z,100952.56
2022-07-29T17:39:40.804Z,100954.50
2022-07-29T17:42:09.197Z,100949.75
2022-07-29T17:44:37.350Z,100961.13
2022-07-29T17:47:05.791Z,100955.44
2022-07-29T17:49:36.011Z,100969.66
2022-07-29T17:52:03.985Z,100963.81
2022-07-29T17:54:31.487Z,100961.00
2022-07-29T17:56:59.283Z,100961.41
2022-07-29T17:59:27.203Z,100972.81
2022-07-29T18:01:54.708Z,100964.72
2022-07-29T18:04:23.556Z,100968.50
2022-07-29T18:06:51.718Z,100978.25
2022-07-29T18:09:19.218Z,100970.38
2022-07-29T18:11:47.537Z,100976.69
2022-07-29T18:14:14.996Z,100976.69
2022-07-29T18:16:42.699Z,100981.75
2022-07-29T18:19:10.228Z,100976.56
2022-07-29T18:21:44.362Z,100967.31
2022-07-29T18:24:27.596Z,100976.00
2022-07-29T18:26:55.147Z,100976.53
2022-07-29T18:29:22.679Z,100979.31
2022-07-29T18:31:50.352Z,100984.75
2022-07-29T18:34:17.900Z,100989.63
2022-07-29T18:36:45.999Z,101006.28
2022-07-29T18:39:19.176Z,100997.97
2022-07-29T18:41:52.183Z,100986.03
2022-07-29T18:44:21.897Z,100985.16
2022-07-29T18:46:52.331Z,100998.78
2022-07-29T18:49:20.571Z,101000.16
2022-07-29T18:51:49.413Z,100999.91
2022-07-29T18:54:17.622Z,101007.13
2022-07-29T18:56:46.631Z,101001.84
2022-07-29T18:59:19.920Z,101015.16
2022-07-29T19:01:48.469Z,101006.81
2022-07-29T19:04:17.366Z,101019.88
2022-07-29T19:06:45.518Z,101029.56
2022-07-29T19:09:13.082Z,101031.25
2022-07-29T19:11:40.628Z,101031.00
2022-07-29T19:14:08.132Z,101053.34
2022-07-29T19:16:35.914Z,101064.78
2022-07-29T19:19:03.498Z,101074.88
2022-07-29T19:21:31.062Z,101070.44
2022-07-29T19:24:01.876Z,101079.03
2022-07-29T19:26:36.750Z,101089.59
2022-07-29T19:29:04.713Z,101080.13
2022-07-29T19:31:32.325Z,101072.94
2022-07-29T19:33:59.893Z,101072.38
2022-07-29T19:36:27.447Z,101069.06
2022-07-29T19:38:55.033Z,101067.94
2022-07-29T19:41:22.743Z,101064.88
2022-07-29T19:43:53.068Z,101070.44
2022-07-29T19:46:21.927Z,101070.97
2022-07-29T19:48:50.080Z,101062.66
2022-07-29T19:51:17.612Z,101061.25
2022-07-29T19:53:45.103Z,101063.63
2022-07-29T19:56:12.889Z,101081.63
2022-07-29T19:58:41.278Z,101071.69
2022-07-29T20:01:10.361Z,101062.88
2022-07-29T20:03:40.109Z,101073.50
2022-07-29T20:06:08.506Z,101070.41
2022-07-29T20:08:36.483Z,101064.03
2022-07-29T20:11:04.045Z,101065.72
2022-07-29T20:13:33.637Z,101061.97
2022-07-29T20:16:02.078Z,101068.16
2022-07-29T20:18:29.799Z,101072.88
2022-07-29T20:20:57.699Z,101069.59
2022-07-29T20:23:25.276Z,101069.84
2022-07-29T20:25:52.784Z,101072.94
2022-07-29T20:28:22.619Z,101075.16
2022-07-29T20:30:50.121Z,101071.53
2022-07-29T20:33:17.711Z,101063.50
2022-07-29T20:35:45.216Z,101068.47
2022-07-29T20:38:16.406Z,101057.38
2022-07-29T20:40:46.117Z,101071.28
2022-07-29T20:43:13.594Z,101071.53
2022-07-29T20:45:41.088Z,101083.66
2022-07-29T20:48:10.501Z,101080.16
2022-07-29T20:50:37.963Z,101075.72
2022-07-29T20:53:05.505Z,101070.72
2022-07-29T20:55:33.068Z,101084.81
2022-07-29T20:58:00.522Z,101098.97
2022-07-29T21:00:28.636Z,101100.53
2022-07-29T21:02:56.146Z,101101.34
2022-07-29T21:05:23.748Z,101107.16
2022-07-29T21:07:54.370Z,101099.38
2022-07-29T21:10:25.836Z,101085.72
2022-07-29T21:12:53.307Z,101091.09
2022-07-29T21:15:21.818Z,101088.41
2022-07-29T21:17:49.411Z,101087.22
2022-07-29T21:20:18.872Z,101092.44
2022-07-29T21:22:46.344Z,101089.31
2022-07-29T21:25:13.868Z,101086.59
2022-07-29T21:27:59.724Z,101091.06
2022-07-29T21:30:27.225Z,101097.41
2022-07-29T21:32:54.812Z,101094.94
2022-07-29T21:36:02.014Z,101097.09
2022-07-29T21:38:09.832Z,101100.88
2022-07-29T21:40:37.371Z,101101.16
2022-07-29T21:43:04.808Z,101096.53
2022-07-29T21:45:32.263Z,101093.72
2022-07-29T21:47:59.716Z,101092.03
2022-07-29T21:50:27.124Z,101088.22
2022-07-29T21:52:54.631Z,101086.75
2022-07-29T21:55:22.921Z,101095.94
2022-07-29T21:57:56.438Z,101093.38
2022-07-29T22:00:25.828Z,101077.13
2022-07-29T22:02:53.543Z,101081.63
2022-07-29T22:05:21.681Z,101080.84
2022-07-29T22:07:54.178Z,101080.16
2022-07-29T22:10:25.979Z,101077.84
2022-07-29T22:12:55.425Z,101074.59
2022-07-29T22:15:23.887Z,101072.13
2022-07-29T22:17:51.603Z,101082.84
2022-07-29T22:20:20.097Z,101083.72
2022-07-29T22:22:48.212Z,101078.09
2022-07-29T22:25:16.117Z,101081.47
2022-07-29T22:27:44.300Z,101086.94
2022-07-29T22:30:12.976Z,101088.13
2022-07-29T22:32:40.522Z,101089.44
2022-07-29T22:35:08.620Z,101093.22
2022-07-29T22:37:36.178Z,101090.47
2022-07-29T22:40:04.983Z,101090.84
2022-07-29T22:42:35.247Z,101088.69
2022-07-29T22:45:02.958Z,101097.44
2022-07-29T22:47:46.638Z,101091.75
2022-07-29T22:50:16.938Z,101093.88
2022-07-29T22:52:45.600Z,101092.81
2022-07-29T22:55:13.482Z,101098.34
2022-07-29T22:57:41.392Z,101104.78
2022-07-29T23:00:09.788Z,101096.75
2022-07-29T23:02:38.196Z,101093.16
2022-07-29T23:05:06.747Z,101088.72
2022-07-29T23:07:34.629Z,101090.94
2022-07-29T23:10:02.493Z,101088.63
2022-07-29T23:12:30.800Z,101096.63
2022-07-29T23:14:58.251Z,101094.69
2022-07-29T23:17:25.732Z,101091.28
2022-07-29T23:19:53.366Z,101085.72
2022-07-29T23:22:20.846Z,101084.69
2022-07-29T23:24:48.277Z,101085.75
2022-07-29T23:27:15.797Z,101077.19
2022-07-29T23:29:43.313Z,101071.25
2022-07-29T23:32:10.798Z,101064.38
2022-07-29T23:34:38.267Z,101061.00
2022-07-29T23:37:05.959Z,101062.59
2022-07-29T23:39:33.480Z,101071.75
2022-07-29T23:42:01.119Z,101075.25
2022-07-29T23:44:28.663Z,101068.63
2022-07-29T23:46:56.358Z,101068.66
2022-07-29T23:49:23.870Z,101055.59
2022-07-29T23:51:51.409Z,101047.75
2022-07-29T23:54:18.841Z,101055.41
2022-07-29T23:56:46.464Z,101060.53
2022-07-29T23:59:14.886Z,101054.09
